• Join FlightAware (Why Join?)
  • Login
  • US Flag 
06:45AM EDT


 

Airport Tracker/Info


-or-


 

Live Flight TrackerFlight Track Log ✈ EGF4174 ✈ 06-Jun-2013 ✈ KSYR - KORD

Flight Track Log - Related Links

Times and Time Zones

All times are in EDT time to prevent confusion due to time zone crossing. See the EGF4174 flight status page for this flight to view local times or setup timezone preferences in your user account.

Time Position Orientation Groundspeed Altitude Reporting Facility
EDT Latitude Longitude Course Direction KTS MPH feet Rate Location/Type
04:53PM 43.1089 -76.0892 286° West 162 186 1,100  Level Boston Center
04:54PM 43.1522 -76.0436 37° Northeast 237 273 3,600 1,860 Climbing Boston Center
04:55PM 43.1706 -76.3117 295° West  Level FlightAware Approximate
04:56PM 43.1833 -76.4178 270° West  Level FlightAware Approximate
04:57PM 43.2023 -76.5158 281° West  Level FlightAware Approximate
04:57PM 43.2169 -76.2525 293° West 258 297 8,000  Level Cleveland Center
04:58PM 43.2182 -76.6236 286° West  Level FlightAware Approximate
04:58PM 43.2186 -76.3494 271° West 258 297 9,800  Level Cleveland Center
04:59PM 43.2186 -76.4664 270° West 277 319 10,000 1,200 Climbing Cleveland Center
05:00PM 43.2250 -76.5883 274° West 305 351 12,200 1,920 Climbing Cleveland Center
05:01PM 43.2436 -76.7042 282° West 310 357 13,900 1,560 Climbing Cleveland Center
05:02PM 43.2642 -76.8225 283° West 316 364 15,400 1,500 Climbing Cleveland Center
05:03PM 43.2844 -76.9411 283° West 316 364 16,900 1,320 Climbing Cleveland Center
05:04PM 43.3000 -77.0372 283° West 316 364 18,100 1,380 Climbing Cleveland Center
05:05PM 43.3081 -77.1653 275° West 316 364 19,700 1,380 Climbing Cleveland Center
05:06PM 43.3092 -77.2794 271° West 309 356 20,900 1,200 Climbing Cleveland Center
05:07PM 43.3042 -77.3967 267° West 309 356 22,100 1,200 Climbing Cleveland Center
05:08PM 43.3011 -77.5167 268° West 309 356 23,300 1,200 Climbing Cleveland Center
05:09PM 43.2981 -77.6394 268° West 314 361 24,500 1,200 Climbing Cleveland Center
05:10PM 43.2969 -77.7650 269° West 319 367 25,800 1,200 Climbing Cleveland Center
05:11PM 43.2917 -77.8878 267° West 324 373 27,000 1,200 Climbing Cleveland Center
05:12PM 43.2881 -78.0078 268° West 324 373 28,200 1,260 Climbing Cleveland Center
05:13PM 43.2847 -78.1450 268° West 329 379 29,600 1,260 Climbing Cleveland Center
05:14PM 43.2811 -78.2647 268° West 329 379 30,800 1,200 Climbing Cleveland Center
05:15PM 43.2772 -78.3847 267° West 329 379 32,000 600 Climbing Cleveland Center
05:16PM 43.2711 -78.5103 266° West 329 379 32,000 60 Level Cleveland Center
05:17PM 43.2672 -78.6417 268° West 341 392 32,200 660 Climbing Cleveland Center
05:18PM 43.2631 -78.7758 268° West 353 406 33,400 1,140 Climbing Cleveland Center
05:19PM 43.2589 -78.9072 268° West 358 412 34,500 1,080 Climbing Cleveland Center
05:20PM 43.2544 -79.0411 267° West 351 404 35,600 840 Climbing Cleveland Center
05:20PM 43.2333 -79.1000 244° Southwest 330 380 36,000 180 Climbing Toronto Center
05:21PM 43.2333 -79.2500 270° West 340 391 36,000  Level Toronto Center
05:22PM 43.2333 -79.3667 270° West 350 403 36,000  Level Toronto Center
05:23PM 43.2167 -79.5167 261° West 370 426 36,000  Level Toronto Center
05:24PM 43.2167 -79.6500 270° West 380 437 36,000  Level Toronto Center
05:25PM 43.2000 -79.8167 262° West 390 449 36,000  Level Toronto Center
05:26PM 43.2000 -79.9500 270° West 390 449 36,000  Level Toronto Center
05:27PM 43.2000 -80.1167 270° West 380 437 36,000  Level Toronto Center
05:28PM 43.1833 -80.2500 260° West 380 437 36,000  Level Toronto Center
05:29PM 43.1833 -80.3833 270° West 380 437 36,000  Level Toronto Center
05:30PM 43.1667 -80.5500 262° West 390 449 36,000  Level Toronto Center
05:31PM 43.1667 -80.6833 270° West 390 449 36,000  Level Toronto Center
05:32PM 43.1500 -80.8500 262° West 390 449 36,000  Level Toronto Center
05:33PM 43.1333 -80.9833 260° West 390 449 36,000  Level Toronto Center
05:34PM 43.1333 -81.1167 270° West 390 449 36,000  Level Toronto Center
05:35PM 43.1333 -81.2833 270° West 390 449 36,000  Level Toronto Center
05:36PM 43.1167 -81.4167 260° West 390 449 36,000  Level Toronto Center
05:37PM 43.1167 -81.5667 270° West 390 449 36,000  Level Toronto Center
05:38PM 43.1000 -81.7333 262° West 400 460 36,000  Level Toronto Center
05:39PM 43.1000 -81.8667 270° West 400 460 36,000  Level Toronto Center
05:40PM 43.0833 -82.0333 262° West 400 460 36,000  Level Toronto Center
05:41PM 43.0667 -82.1667 260° West 400 460 36,000  Level Toronto Center
05:42PM 43.0667 -82.3333 270° West 400 460 36,000  Level Toronto Center
05:43PM 43.0500 -82.4667 260° West 400 460 36,000  Level Toronto Center
05:44PM 43.0500 -82.6167 270° West 400 460 36,000  Level Toronto Center
05:45PM 43.0500 -82.6600 270° West 404 465 36,000 -720 Level Cleveland Center
05:46PM 43.0389 -82.8131 264° West 409 471 35,100 -960 Descending Cleveland Center
05:47PM 43.0256 -82.9631 263° West 404 465 34,100 -1,080 Descending Cleveland Center
05:48PM 43.0158 -83.1161 265° West 404 465 33,000 -1,080 Descending Cleveland Center
05:49PM 43.0042 -83.2661 264° West 404 465 32,000 -540 Descending Cleveland Center
05:50PM 42.9922 -83.4189 264° West 404 465 32,000  Level Cleveland Center
05:51PM 42.9800 -83.5686 264° West 404 465 32,000  Level Cleveland Center
05:52PM 42.9678 -83.7214 264° West 404 465 32,000  Level Cleveland Center
05:53PM 42.9531 -83.8739 263° West 404 465 32,000  Level Cleveland Center
05:54PM 42.9378 -84.0433 263° West 404 465 32,000  Level Cleveland Center
05:55PM 42.9225 -84.1983 262° West 409 471 32,000  Level Cleveland Center
05:55PM 42.9186 -84.2447 263° West 413 475 32,000  Level Chicago Center
05:56PM 42.9036 -84.3967 262° West 408 470 32,000  Level Chicago Center
05:57PM 42.8883 -84.5478 262° West 410 472 32,000  Level Chicago Center
05:58PM 42.8725 -84.6994 262° West 408 470 32,000  Level Chicago Center
05:59PM 42.8561 -84.8547 262° West 413 475 32,000  Level Chicago Center
06:00PM 42.8400 -85.0083 262° West 411 473 32,000  Level Chicago Center
06:01PM 42.8200 -85.1925 262° West 411 473 32,000  Level Chicago Center
06:02PM 42.8036 -85.3486 262° West 408 470 32,000  Level Chicago Center
06:03PM 42.7858 -85.5025 261° West 410 472 32,000 -1,020 Level Chicago Center
06:04PM 42.7592 -85.6514 256° West 410 472 30,000 -2,460 Descending Chicago Center
06:06PM 42.7209 -85.8000 259° West  Level FlightAware Approximate
06:06PM 42.7031 -85.9589 259° West 415 478 24,500  Level Chicago Center
06:07PM 42.6761 -86.1064 256° West 404 465 21,700 -2,160 Descending Chicago Center
06:08PM 42.6456 -86.2758 256° West 386 444 20,000 -840 Descending Chicago Center
06:09PM 42.6186 -86.4131 255° West 378 435 20,000 -60 Level Chicago Center
06:10PM 42.5928 -86.5511 256° West 378 435 19,900 -1,200 Descending Chicago Center
06:12PM 42.5678 -86.6903 256° West 380 437 17,600 -2,340 Descending Chicago Center
06:13PM 42.5361 -86.8217 252° West 371 427 15,100 -2,460 Descending Chicago Center
06:14PM 42.5003 -86.9528 250° West 369 425 12,600 -2,160 Descending Chicago Center
06:15PM 42.4583 -87.1019 249° West 352 405 10,700 -1,260 Descending Chicago Center
06:16PM 42.4242 -87.2233 249° West 347 399 10,000 -360 Descending Chicago Center
06:17PM 42.3908 -87.3450 250° West 346 398 10,000  Level Chicago Center
06:18PM 42.3539 -87.4814 250° West 342 394 10,000  Level Chicago Center
06:19PM 42.2956 -87.5797 231° Southwest 347 399 10,000  Level Chicago Center
06:20PM 42.2206 -87.6606 219° Southwest 345 397 10,000  Level Chicago Center
06:21PM 42.1544 -87.7297 218° Southwest 306 352 10,000 -660 Level Chicago Center
06:22PM 42.0869 -87.7761 207° Southwest 277 319 8,700 -1,020 Descending Chicago Center
06:23PM 42.0050 -87.8092 197° South 255 293 8,000 -360 Descending Chicago Center
06:24PM 41.9428 -87.8342 197° South 237 273 8,000 -120 Level Chicago Center
06:25PM 41.8825 -87.8642 200° South 233 268 7,800 -780 Descending Chicago Center
06:26PM 41.8317 -87.9178 218° Southwest 233 268 6,400 -1,320 Descending Chicago Center
06:27PM 41.7811 -87.9683 217° Southwest 231 266 5,100 -1,200 Descending Chicago Center
06:28PM 41.8081 -88.0481 294° West 225 259 4,000 -1,080 Descending Chicago Center